Latest Weather Observations for Lameroo AWS

IDS60801

Issued at 7:04 pm CDT Friday 6 March 2015 (issued every 30 minutes, with the page automatically refreshed every 10 minutes)

About weather observations | Map of weather stations | Latest weather observations for SA | Other Formats
Station Details ID: 025562 Name: AUSTIN PLAINS Lat: -35.38 Lon: 140.54 Height: 110.08 m
Data from the previous 72 hours. | See also: Recent months at Lameroo AWS
Date/Time
CDT
Temp
°C
App
Temp
°C
Dew
Point
Rel
Hum
%
Delta-T
°C
Wind Press
QNH
hPa
Press
MSL
hPa
Rain
since 9 am
mm
Dir
 
Spd
km/h
Gust
km/h
Spd
kts
Gust
kts
06/07:00pm 18.2 12.8 10.8 62 4.0 SW 30 39 16 21 1015.1 1014.7 0.0
06/06:30pm 18.9 13.8 10.5 58 4.5 SW 28 37 15 20 1014.8 1014.4 0.0
06/06:00pm 19.6 14.5 10.6 56 4.9 SW 28 37 15 20 1014.8 1014.4 0.0
06/05:30pm 21.0 15.5 10.5 51 5.7 SW 30 43 16 23 1014.9 1014.5 0.0
06/05:00pm 21.8 16.5 10.0 47 6.4 SW 28 37 15 20 1014.6 1014.2 0.0
06/04:30pm 21.3 15.6 9.9 48 6.2 SW 30 46 16 25 1014.6 1014.2 0.0
06/04:00pm 22.6 17.0 10.1 45 6.8 SW 30 41 16 22 1014.8 1014.4 0.0
06/03:30pm 22.4 16.6 9.6 44 6.9 SW 30 44 16 24 1014.9 1014.5 0.0
06/03:00pm 22.4 16.5 9.2 43 7.1 SSW 30 41 16 22 1015.2 1014.8 0.0
06/02:30pm 22.0 16.1 9.2 44 6.9 SW 30 43 16 23 1015.5 1015.2 0.0
06/02:00pm 21.9 15.8 9.8 46 6.6 SW 32 48 17 26 1015.8 1015.5 0.0
06/01:30pm 21.5 16.0 9.1 45 6.6 SW 28 39 15 21 1016.3 1016.0 0.0
06/01:00pm 21.0 15.4 8.9 46 6.4 SW 28 39 15 21 1016.7 1016.4 0.0
06/12:30pm 20.8 14.5 8.8 46 6.3 SW 32 44 17 24 1016.9 1016.6 0.0
06/12:00pm 20.4 13.5 8.7 47 6.2 SW 35 54 19 29 1017.0 1016.7 0.0
06/11:51am 20.1 13.6 8.8 48 6.0 SW 33 54 18 29 1016.9 1016.6 0.0
06/11:30am 18.8 12.9 9.0 53 5.1 SW 30 43 16 23 1017.6 1017.3 0.0
06/11:00am 18.8 12.9 9.0 53 5.1 SSW 30 41 16 22 1017.7 1017.4 0.0
06/10:30am 17.8 11.8 8.6 55 4.8 SSW 30 37 16 20 1017.7 1017.4 0.0
06/10:00am 17.4 10.1 8.8 57 4.5 SSW 37 48 20 26 1017.5 1017.2 0.0
06/09:30am 17.1 10.9 9.3 60 4.1 SW 32 39 17 21 1017.5 1017.2 0.0
06/09:00am 16.3 10.5 9.5 64 3.5 SW 30 39 16 21 1017.7 1017.4 0.0
06/08:30am 15.5 10.5 9.6 68 3.1 SW 26 35 14 19 1017.6 1017.3 0.0
06/08:00am 15.1 10.9 9.7 70 2.8 SW 22 33 12 18 1017.4 1017.1 0.0
06/07:30am 14.7 9.3 9.5 71 2.7 SW 28 41 15 22 1017.2 1016.9 0.0
06/07:00am 14.6 9.1 9.2 70 2.8 SW 28 35 15 19 1017.0 1016.7 0.0
06/06:30am 14.5 8.1 8.7 68 2.9 SW 32 43 17 23 1017.0 1016.7 0.0
06/06:00am 14.1 10.0 8.5 69 2.8 SW 20 26 11 14 1017.1 1016.8 0.0
06/05:30am 13.6 9.9 8.0 69 2.8 SW 17 22 9 12 1017.1 1016.8 0.0
06/05:00am 13.6 10.2 7.8 68 2.9 WSW 15 20 8 11 1017.2 1016.9 0.0
06/04:30am 13.1 9.4 7.8 70 2.6 WSW 17 20 9 11 1017.3 1017.0 0.0
06/04:00am 13.3 9.5 7.7 69 2.8 WSW 17 20 9 11 1017.3 1017.0 0.0
06/03:30am 12.6 9.6 7.5 71 2.5 WSW 13 17 7 9 1017.6 1017.3 0.0
06/03:00am 12.3 9.1 7.0 70 2.6 WSW 13 17 7 9 1017.8 1017.5 0.0
06/02:30am 11.2 7.2 6.7 74 2.1 WSW 17 19 9 10 1018.0 1017.7 0.0
06/02:00am 11.2 7.6 6.7 74 2.1 WSW 15 17 8 9 1018.5 1018.2 0.0
06/01:30am 10.8 7.1 6.2 73 2.2 W 15 17 8 9 1019.1 1018.8 0.0
06/01:00am 11.1 7.4 6.5 73 2.2 WSW 15 17 8 9 1019.7 1019.4 0.0
06/12:30am 11.1 7.8 6.3 72 2.3 WSW 13 13 7 7 1020.0 1019.7 0.0
06/12:00am 11.6 8.2 6.1 69 2.6 SW 13 17 7 9 1020.2 1019.9 0.0
 
Date/Time
CDT
Temp
°C
App
Temp
°C
Dew
Point
Rel
Hum
%
Delta-T
°C
Wind Press
QNH
hPa
Press
MSL
hPa
Rain
since 9 am
mm
Dir
 
Spd
km/h
Gust
km/h
Spd
kts
Gust
kts
05/11:30pm 12.1 8.0 6.2 67 2.8 SW 17 20 9 11 1020.5 1020.2 0.0
05/11:00pm 12.7 8.1 6.3 65 3.1 SW 20 24 11 13 1020.7 1020.4 0.0
05/10:30pm 13.3 8.3 6.4 63 3.3 SW 22 30 12 16 1021.0 1020.7 0.0
05/10:00pm 13.3 8.6 6.2 62 3.4 SW 20 24 11 13 1020.9 1020.6 0.0
05/09:30pm 13.8 8.6 5.7 58 3.8 SW 22 30 12 16 1020.6 1020.3 0.0
05/09:00pm 14.3 8.4 5.9 57 4.0 SW 26 33 14 18 1020.4 1020.1 0.0
05/08:30pm 14.7 8.7 5.5 54 4.4 SW 26 32 14 17 1020.2 1019.9 0.0
05/08:00pm 15.3 10.0 5.0 50 4.9 SSW 22 30 12 16 1019.7 1019.4 0.0
05/07:30pm 16.4 10.2 4.4 45 5.6 SSW 26 35 14 19 1019.6 1019.3 0.0
05/07:00pm 18.2 10.7 4.4 40 6.6 SW 33 46 18 25 1019.7 1019.4 0.0
05/06:30pm 19.8 12.2 2.6 32 8.0 SW 32 43 17 23 1019.3 1019.0 0.0
05/06:00pm 20.6 12.9 2.4 30 8.5 SW 32 43 17 23 1019.0 1018.7 0.0
05/05:30pm 21.3 13.9 2.1 28 9.0 SW 30 41 16 22 1018.8 1018.5 0.0
05/05:00pm 21.8 14.7 1.5 26 9.4 SW 28 39 15 21 1018.6 1018.3 0.0
05/04:30pm 22.3 14.9 1.9 26 9.6 SW 30 44 16 24 1018.5 1018.2 0.0
05/04:00pm 22.6 15.6 2.1 26 9.7 SW 28 39 15 21 1018.9 1018.6 0.0
05/03:30pm 23.9 18.4 2.1 24 10.4 SW 20 39 11 21 1019.1 1018.8 0.0
05/03:00pm 22.3 16.6 0.8 24 9.9 SW 20 32 11 17 1019.5 1019.2 0.0
05/02:30pm 22.5 16.1 0.9 24 9.9 SSW 24 33 13 18 1019.9 1019.6 0.0
05/02:00pm 21.6 16.0 1.3 26 9.4 SW 20 35 11 19 1020.1 1019.8 0.0
05/01:30pm 21.1 15.6 0.9 26 9.2 SSW 19 30 10 16 1020.8 1020.5 0.0
05/01:00pm 20.3 14.9 2.2 30 8.4 S 20 30 11 16 1021.1 1020.8 0.0
05/12:30pm 19.0 13.4 1.5 31 7.9 S 20 30 11 16 1021.7 1021.4 0.0
05/12:00pm 19.2 13.7 2.1 32 7.8 S 20 32 11 17 1021.9 1021.6 0.0
05/11:30am 18.1 11.5 2.0 34 7.3 SSW 26 35 14 19 1022.4 1022.1 0.0
05/11:00am 17.9 10.4 1.4 33 7.4 S 30 39 16 21 1022.2 1021.9 0.0
05/10:30am 17.1 10.2 2.3 37 6.7 SSW 28 41 15 22 1022.3 1022.0 0.0
05/10:00am 16.5 10.0 2.9 40 6.2 S 26 33 14 18 1022.2 1021.9 0.0
05/09:30am 15.0 8.0 4.1 48 5.0 S 30 39 16 21 1021.7 1021.4 0.0
05/09:00am 14.5 9.2 5.0 53 4.5 S 22 33 12 18 1021.5 1021.2 0.0
05/08:30am 13.6 8.4 5.3 57 3.9 S 22 30 12 16 1021.3 1021.0 0.0
05/08:00am 12.7 8.9 7.6 71 2.5 SSW 17 20 9 11 1021.2 1020.9 0.0
05/07:30am 11.5 8.1 7.6 77 1.9 SSW 15 20 8 11 1020.8 1020.5 0.0
05/07:00am 11.4 7.6 7.5 77 1.9 SSW 17 22 9 12 1020.2 1019.9 0.0
05/06:30am 12.2 7.9 7.9 75 2.1 S 20 28 11 15 1019.6 1019.3 0.0
05/06:00am 12.9 7.7 8.8 76 2.1 S 26 37 14 20 1018.9 1018.6 0.0
05/05:30am 13.8 8.7 9.3 74 2.3 SSW 26 35 14 19 1018.6 1018.3 0.0
05/05:00am 13.8 9.6 9.6 76 2.2 SSW 22 32 12 17 1018.2 1017.9 0.0
05/04:30am 13.8 9.8 10.4 80 1.8 SSW 22 32 12 17 1017.9 1017.6 0.0
05/04:00am 14.0 9.8 11.0 82 1.6 SSW 24 32 13 17 1017.4 1017.1 0.0
05/03:30am 14.6 9.8 11.6 82 1.6 SSW 28 39 15 21 1017.2 1016.9 0.0
05/03:00am 15.4 9.4 12.2 81 1.8 SSW 35 48 19 26 1017.2 1016.9 0.0
05/02:30am 15.3 11.1 12.4 83 1.6 SW 26 32 14 17 1017.1 1016.8 0.0
05/02:00am 15.4 10.4 12.3 82 1.7 SW 30 39 16 21 1017.0 1016.7 0.0
05/01:30am 15.7 10.1 13.4 86 1.3 WSW 35 50 19 27 1017.1 1016.8 0.0
05/01:25am 15.8 11.6 13.5 86 1.3 WSW 28 48 15 26 1017.1 1016.8 0.0
05/01:00am 15.5 11.6 13.2 86 1.3 SW 26 33 14 18 1016.8 1016.5 0.0
05/12:30am 15.4 12.2 13.2 87 1.2 WSW 22 28 12 15 1016.8 1016.5 0.0
05/12:08am 15.2 10.6 13.4 89 1.0 WSW 30 48 16 26 1017.1 1016.8 0.0
05/12:00am 15.4 10.0 12.9 85 1.4 WSW 33 48 18 26 1017.3 1017.0 0.0
 
Date/Time
CDT
Temp
°C
App
Temp
°C
Dew
Point
Rel
Hum
%
Delta-T
°C
Wind Press
QNH
hPa
Press
MSL
hPa
Rain
since 9 am
mm
Dir
 
Spd
km/h
Gust
km/h
Spd
kts
Gust
kts
04/11:57pm 16.0 11.5 12.6 80 1.9 WSW 28 46 15 25 1017.2 1016.9 0.0
04/11:30pm 16.6 13.0 12.0 74 2.5 WSW 22 28 12 15 1016.9 1016.6 0.0
04/11:00pm 17.1 12.4 12.0 72 2.8 WSW 28 39 15 21 1016.7 1016.4 0.0
04/10:30pm 17.9 13.5 11.7 67 3.4 WSW 26 33 14 18 1016.9 1016.6 0.0
04/10:00pm 18.0 12.3 11.3 65 3.7 WSW 32 41 17 22 1016.7 1016.4 0.0
04/09:30pm 18.2 12.3 11.3 64 3.8 WSW 33 46 18 25 1016.7 1016.4 0.0
04/09:00pm 18.1 14.3 11.0 63 3.9 SW 22 32 12 17 1016.4 1016.1 0.0
04/08:30pm 17.8 13.4 10.4 62 4.0 SW 24 35 13 19 1016.0 1015.7 0.0
04/08:00pm 18.4 13.2 10.3 59 4.4 SW 28 37 15 20 1015.5 1015.2 0.0
04/07:30pm 19.2 14.5 10.5 57 4.7 SW 26 33 14 18 1015.4 1015.0 0.0
04/07:00pm 20.4 14.4 10.2 52 5.5 SW 32 43 17 23 1015.3 1014.9 0.0
04/06:30pm 21.6 16.0 10.1 48 6.3 SW 30 43 16 23 1015.2 1014.8 0.0
04/06:00pm 22.7 16.9 9.5 43 7.2 WSW 30 43 16 23 1014.8 1014.4 0.0
04/05:30pm 22.8 16.5 9.6 43 7.2 SW 33 44 18 24 1015.0 1014.6 0.0
04/05:00pm 23.2 17.8 9.6 42 7.4 SW 28 43 15 23 1014.7 1014.3 0.0
04/04:30pm 24.5 18.2 8.9 37 8.5 SW 32 44 17 24 1014.8 1014.4 0.0
04/04:08pm 24.1 17.8 7.3 34 8.8 WSW 30 50 16 27 1014.8 1014.4 0.0
04/04:00pm 24.0 17.3 7.2 34 8.8 WSW 32 43 17 23 1015.0 1014.6 0.0
04/03:30pm 24.6 17.9 7.3 33 9.1 SW 32 43 17 23 1015.2 1014.8 0.0
04/03:00pm 24.3 18.3 7.0 33 9.0 WSW 28 41 15 22 1015.7 1015.4 0.0
04/02:32pm 24.8 18.8 7.0 32 9.3 WSW 28 46 15 25 1015.8 1015.5 0.0
04/02:30pm 24.5 18.5 7.2 33 9.1 WSW 28 46 15 25 1015.9 1015.6 0.0
04/02:29pm 24.1 18.0 6.8 33 9.0 WSW 28 46 15 25 1015.9 1015.6 0.0
04/02:00pm 24.2 18.9 6.9 33 9.0 WSW 24 35 13 19 1016.1 1015.8 0.0
04/01:30pm 23.8 17.8 7.0 34 8.8 WSW 28 41 15 22 1016.5 1016.2 0.0
04/01:00pm 22.8 17.3 7.4 37 8.0 WSW 26 35 14 19 1016.9 1016.6 0.0
04/12:30pm 22.1 18.0 7.9 40 7.4 WSW 19 24 10 13 1017.4 1017.1 0.0
04/12:00pm 20.7 16.4 7.7 43 6.7 WSW 20 43 11 23 1017.8 1017.5 0.0
04/11:30am 20.2 16.5 7.9 45 6.4 WSW 17 26 9 14 1018.2 1017.9 0.0
04/11:00am 19.9 16.7 8.3 47 6.1 SW 15 24 8 13 1018.3 1018.0 0.0
04/10:30am 18.9 15.0 8.6 51 5.4 SW 19 28 10 15 1018.5 1018.2 0.0
04/10:00am 17.9 14.0 8.7 55 4.8 SW 19 28 10 15 1018.6 1018.3 0.0
04/09:30am 16.9 13.4 8.6 58 4.3 SW 17 26 9 14 1018.7 1018.4 0.0
04/09:00am 15.8 13.6 9.5 66 3.3 SSW 11 20 6 11 1018.6 1018.3 0.0
04/08:30am 12.3 11.7 12.3 100 0.0 SW 7 9 4 5 1018.6 1018.3 0.0
04/08:00am 11.0 10.2 11.0 100 0.0 SW 6 7 3 4 1018.2 1017.9 0.0
04/07:30am 9.1 7.8 9.1 100 0.0 SW 6 7 3 4 1018.0 1017.7 0.0
04/07:00am 9.3 7.5 9.3 100 0.0 SW 9 9 5 5 1017.7 1017.4 0.0
04/06:30am 9.0 7.1 9.0 100 0.0 SSW 9 9 5 5 1017.5 1017.2 0.0
04/06:00am 9.8 8.1 9.8 100 0.0 SSW 9 11 5 6 1017.2 1016.9 0.0
04/05:30am 9.8 7.3 9.8 100 0.0 SSW 13 15 7 8 1017.0 1016.7 0.0
04/05:00am 9.3 7.5 9.3 100 0.0 SSW 9 9 5 5 1017.1 1016.8 0.0
04/04:30am 9.7 7.6 9.6 99 0.1 SW 11 13 6 7 1017.2 1016.9 0.0
04/04:00am 10.2 7.5 9.0 92 0.6 SW 13 13 7 7 1017.2 1016.9 0.0
04/03:30am 10.7 8.1 9.3 91 0.7 SW 13 13 7 7 1017.3 1017.0 0.0
04/03:00am 11.4 8.5 9.8 90 0.8 SSW 15 17 8 9 1017.3 1017.0 0.0
04/02:30am 11.8 9.4 9.9 88 1.0 SSW 13 17 7 9 1017.5 1017.2 0.0
04/02:00am 12.0 9.1 9.6 85 1.2 SSW 15 19 8 10 1017.7 1017.4 0.0
04/01:30am 12.5 9.6 9.5 82 1.5 SSW 15 17 8 9 1017.8 1017.5 0.0
04/01:00am 13.2 9.5 9.6 79 1.8 SSW 19 24 10 13 1017.9 1017.6 0.0
04/12:30am 13.7 9.5 9.6 76 2.1 SSW 22 26 12 14 1017.8 1017.5 0.0
04/12:00am 14.2 9.9 9.4 73 2.5 SSW 22 28 12 15 1017.9 1017.6 0.0
 
Date/Time
CDT
Temp
°C
App
Temp
°C
Dew
Point
Rel
Hum
%
Delta-T
°C
Wind Press
QNH
hPa
Press
MSL
hPa
Rain
since 9 am
mm
Dir
 
Spd
km/h
Gust
km/h
Spd
kts
Gust
kts
03/11:30pm 14.7 10.3 8.9 68 3.0 SSW 22 28 12 15 1017.8 1017.5 0.0
03/11:00pm 15.3 10.4 8.5 64 3.5 SSW 24 32 13 17 1018.0 1017.7 0.0
03/10:30pm 15.9 10.2 8.4 61 3.8 SSW 28 35 15 19 1018.0 1017.7 0.0
03/10:00pm 16.6 12.1 8.6 59 4.1 SSW 22 30 12 16 1018.2 1017.9 0.0
03/09:30pm 17.6 12.8 9.0 57 4.5 SSW 24 32 13 17 1017.8 1017.5 0.0
03/09:00pm 18.5 13.3 8.7 53 5.1 SSW 26 37 14 20 1017.3 1017.0 0.0
03/08:30pm 19.9 14.6 8.6 48 5.9 SSW 26 33 14 18 1016.9 1016.6 0.0
03/08:00pm 21.4 15.7 8.3 43 6.9 SSW 28 35 15 19 1016.4 1016.1 0.0
03/07:30pm 23.6 17.7 7.7 36 8.4 SSW 28 37 15 20 1015.5 1015.2 0.0

Other Formats:

Comma delimited format used in spreadsheet applications
http://www.bom.gov.au/fwo/IDS60801/IDS60801.94690.axf

JavaScript Object Notation format (JSON) in row-major order
http://www.bom.gov.au/fwo/IDS60801/IDS60801.94690.json